Time;durP1;ratioP1;P1;durP2;ratioP2;P2;SDS_P1;SDS_P2;PMS_P1;PMS_P2;Temp;Humidity;BMP_temperature;BMP_pressure;BME280_temperature;BME280_humidity;BME280_pressure;Samples;Min_cycle;Max_cycle;Signal;HPM_P1;HPM_P2
2021/01/11 00:01:46;;;;;;;47.20;21.58;;;2.70;74.90;;;;;;5114946;28;20032;-73
2021/01/11 00:04:12;;;;;;;45.75;21.65;;;2.70;74.90;;;;;;5115196;28;20095;-74
2021/01/11 00:06:42;;;;;;;47.30;21.92;;;2.60;75.00;;;;;;5113472;28;20459;-73
2021/01/11 00:09:08;;;;;;;54.35;22.70;;;2.60;75.20;;;;;;5114316;28;20474;-74
2021/01/11 00:11:35;;;;;;;51.35;21.88;;;2.60;75.10;;;;;;5114317;28;20467;-72
2021/01/11 00:14:04;;;;;;;54.75;23.67;;;2.50;75.10;;;;;;5114859;28;20027;-74
2021/01/11 00:16:31;;;;;;;52.05;22.70;;;2.50;75.30;;;;;;5114777;28;20027;-73
2021/01/11 00:18:57;;;;;;;52.97;22.13;;;2.50;75.40;;;;;;5113166;28;20031;-72
2021/01/11 00:21:23;;;;;;;58.80;25.70;;;2.50;75.50;;;;;;5114194;28;20024;-73
2021/01/11 00:23:49;;;;;;;59.40;25.00;;;2.50;75.40;;;;;;5114128;28;20054;-74
2021/01/11 00:26:14;;;;;;;58.83;26.92;;;2.50;75.50;;;;;;5114388;28;20038;-74
2021/01/11 00:28:41;;;;;;;57.38;25.48;;;2.40;75.50;;;;;;5114975;28;20066;-74
2021/01/11 00:31:07;;;;;;;63.58;27.80;;;2.50;75.50;;;;;;5114210;28;20036;-73
2021/01/11 00:33:33;;;;;;;67.93;30.40;;;2.50;75.50;;;;;;5114542;28;20062;-73
2021/01/11 00:35:59;;;;;;;64.30;29.55;;;2.40;75.30;;;;;;5114189;28;20032;-73
2021/01/11 00:38:25;;;;;;;67.63;29.60;;;2.30;75.20;;;;;;5114684;28;20051;-76
2021/01/11 00:40:50;;;;;;;70.88;32.03;;;2.30;75.30;;;;;;5113390;28;20103;-74
2021/01/11 00:43:16;;;;;;;66.22;29.55;;;2.30;75.40;;;;;;5114233;28;20459;-75
2021/01/11 00:45:42;;;;;;;64.13;30.30;;;2.30;75.40;;;;;;5114442;28;20027;-73
2021/01/11 00:48:08;;;;;;;69.13;29.88;;;2.30;75.50;;;;;;5114684;28;20031;-74
2021/01/11 00:50:33;;;;;;;62.97;27.98;;;2.20;75.50;;;;;;5113859;28;20038;-73
2021/01/11 00:52:59;;;;;;;56.92;26.30;;;2.20;75.40;;;;;;5113814;28;20024;-72
2021/01/11 00:55:25;;;;;;;49.15;23.30;;;2.20;75.50;;;;;;5112732;28;20057;-74
2021/01/11 00:57:51;;;;;;;43.65;21.23;;;2.20;75.70;;;;;;5112589;28;20027;-73
2021/01/11 01:00:18;;;;;;;48.33;22.63;;;2.20;75.80;;;;;;5114343;28;20052;-75
2021/01/11 01:02:44;;;;;;;48.90;22.08;;;2.10;75.90;;;;;;5113783;28;20028;-72
2021/01/11 01:05:11;;;;;;;54.47;22.30;;;2.20;76.40;;;;;;5112808;28;20119;-72
2021/01/11 01:07:43;;;;;;;52.17;22.40;;;2.20;76.50;;;;;;5114407;28;20030;-73
2021/01/11 01:10:11;;;;;;;50.90;22.45;;;2.30;76.40;;;;;;5114057;28;20024;-72
2021/01/11 01:12:36;;;;;;;48.65;21.70;;;2.30;76.20;;;;;;5114072;28;20353;-73
2021/01/11 01:15:03;;;;;;;54.40;23.40;;;2.30;76.00;;;;;;5112694;28;20027;-74
2021/01/11 01:17:29;;;;;;;47.63;20.42;;;2.40;76.10;;;;;;5113692;28;20032;-74
2021/01/11 01:19:55;;;;;;;40.60;20.23;;;2.40;75.80;;;;;;5095912;28;20030;-73
2021/01/11 01:22:20;;;;;;;45.20;20.60;;;2.40;75.70;;;;;;5113415;28;20391;-74
2021/01/11 01:24:46;;;;;;;45.05;20.70;;;2.40;75.70;;;;;;5113929;28;20027;-73
2021/01/11 01:27:12;;;;;;;50.17;21.55;;;2.40;75.90;;;;;;5112703;28;20024;-74
2021/01/11 01:29:37;;;;;;;45.72;20.60;;;2.40;76.00;;;;;;5113770;28;20373;-74
2021/01/11 01:32:03;;;;;;;48.38;22.55;;;2.50;76.20;;;;;;5095716;28;20035;-72
2021/01/11 01:34:29;;;;;;;46.45;21.42;;;2.50;75.70;;;;;;5113914;28;20030;-72
2021/01/11 01:36:55;;;;;;;47.85;21.67;;;2.50;75.70;;;;;;5113786;28;20058;-73
2021/01/11 01:39:22;;;;;;;45.00;20.65;;;2.50;75.70;;;;;;5114069;28;20448;-74
2021/01/11 01:41:47;;;;;;;51.72;23.23;;;2.50;75.70;;;;;;5113508;28;20028;-72
2021/01/11 01:44:13;;;;;;;49.72;22.15;;;2.50;75.60;;;;;;5095364;28;20027;-73
2021/01/11 01:46:39;;;;;;;38.45;17.48;;;2.60;75.80;;;;;;5112347;28;20023;-73
2021/01/11 01:49:06;;;;;;;36.78;17.98;;;2.60;75.80;;;;;;5117015;28;20098;-73
2021/01/11 01:51:33;;;;;;;37.17;18.25;;;2.60;75.60;;;;;;5116202;28;20050;-72
2021/01/11 01:53:59;;;;;;;35.20;17.05;;;2.60;75.40;;;;;;5117328;28;20031;-73
2021/01/11 01:56:25;;;;;;;34.65;16.77;;;2.70;75.50;;;;;;5117361;28;20027;-73
2021/01/11 01:58:51;;;;;;;33.05;16.45;;;2.70;75.60;;;;;;5117527;28;20023;-73
2021/01/11 02:01:17;;;;;;;31.05;15.40;;;2.80;75.70;;;;;;5115830;28;20346;-74
2021/01/11 02:03:43;;;;;;;30.50;14.70;;;2.80;75.60;;;;;;5116340;28;20059;-72
2021/01/11 02:06:09;;;;;;;25.92;12.95;;;3.00;75.80;;;;;;5117576;28;20027;-73
2021/01/11 02:08:52;;;;;;;29.08;14.52;;;3.10;75.70;;;;;;5116770;28;20024;-72
2021/01/11 02:11:30;;;;;;;25.05;13.20;;;3.20;75.40;;;;;;5116713;28;20027;-73
2021/01/11 02:14:28;;;;;;;22.98;12.52;;;3.40;75.40;;;;;;5117072;28;20076;-73
2021/01/11 02:16:58;;;;;;;22.73;12.07;;;3.50;74.90;;;;;;5117051;28;20047;-74
2021/01/11 02:19:35;;;;;;;22.67;11.27;;;3.60;74.50;;;;;;5117309;28;20023;-74
2021/01/11 02:22:13;;;;;;;21.45;11.48;;;3.60;74.30;;;;;;5116640;28;20023;-73
2021/01/11 02:24:53;;;;;;;20.70;10.75;;;3.70;74.00;;;;;;5116672;28;20023;-73
2021/01/11 02:27:29;;;;;;;21.92;11.20;;;3.80;73.80;;;;;;5116631;28;20020;-73
2021/01/11 02:30:29;;;;;;;18.00;9.32;;;3.90;73.50;;;;;;5115591;28;20448;-73
2021/01/11 02:33:06;;;;;;;21.58;10.90;;;3.90;73.00;;;;;;5116426;28;20046;-72
2021/01/11 02:35:47;;;;;;;19.00;10.30;;;3.90;72.70;;;;;;5116572;28;20556;-72
2021/01/11 02:38:21;;;;;;;22.48;10.10;;;4.00;72.40;;;;;;5115958;28;20500;-73
2021/01/11 02:40:48;;;;;;;18.05;10.30;;;4.00;72.30;;;;;;5116108;28;20039;-73
2021/01/11 02:43:14;;;;;;;18.65;9.75;;;4.00;72.10;;;;;;5116195;28;20479;-73
2021/01/11 02:45:40;;;;;;;16.85;9.95;;;4.00;71.90;;;;;;5114904;28;20028;-74
2021/01/11 02:48:36;;;;;;;15.90;8.88;;;4.10;71.80;;;;;;5116006;28;20050;-73
2021/01/11 02:51:20;;;;;;;15.25;8.30;;;4.10;71.50;;;;;;5116569;28;20036;-73
2021/01/11 02:53:57;;;;;;;15.13;7.88;;;4.10;71.50;;;;;;5116455;28;20063;-73
2021/01/11 02:56:52;;;;;;;14.13;8.35;;;4.20;71.40;;;;;;5115823;28;20023;-72
2021/01/11 02:59:20;;;;;;;13.20;7.55;;;4.20;70.90;;;;;;5103767;28;20088;-73
2021/01/11 03:02:10;;;;;;;15.02;8.10;;;4.30;70.90;;;;;;5116271;28;20047;-73
2021/01/11 03:04:37;;;;;;;16.15;8.02;;;4.30;70.30;;;;;;5113004;28;20047;-73
2021/01/11 03:07:05;;;;;;;16.20;9.07;;;4.30;70.30;;;;;;5116315;28;20031;-73
2021/01/11 03:09:34;;;;;;;17.35;9.10;;;4.30;70.20;;;;;;5115723;28;20080;-73
2021/01/11 03:12:00;;;;;;;13.05;7.88;;;4.30;70.30;;;;;;5115713;28;20076;-73
2021/01/11 03:14:26;;;;;;;17.67;8.15;;;4.40;70.30;;;;;;5115428;28;20031;-73
2021/01/11 03:16:52;;;;;;;13.25;8.02;;;4.40;70.10;;;;;;5115196;28;20024;-73
2021/01/11 03:19:18;;;;;;;14.55;8.32;;;4.50;69.80;;;;;;5114591;28;20024;-73
2021/01/11 03:21:43;;;;;;;12.68;7.55;;;4.50;69.50;;;;;;5115438;28;20337;-73
2021/01/11 03:24:09;;;;;;;13.48;7.65;;;4.60;69.20;;;;;;5115428;28;20444;-73
2021/01/11 03:26:36;;;;;;;13.95;7.20;;;4.50;68.70;;;;;;5114157;28;20111;-73
2021/01/11 03:29:03;;;;;;;11.93;7.70;;;4.50;68.60;;;;;;5115374;28;20023;-72
2021/01/11 03:31:28;;;;;;;12.73;8.00;;;4.50;68.30;;;;;;5115650;28;20023;-74
2021/01/11 03:33:54;;;;;;;16.33;8.52;;;4.50;68.10;;;;;;5113949;28;20529;-72
2021/01/11 03:36:20;;;;;;;16.13;9.35;;;4.50;68.00;;;;;;5113938;28;20027;-72
2021/01/11 03:38:46;;;;;;;17.27;8.82;;;4.40;67.90;;;;;;5114902;28;20047;-73
2021/01/11 03:41:12;;;;;;;18.08;9.25;;;4.40;68.00;;;;;;5115261;28;20106;-73
2021/01/11 03:43:43;;;;;;;14.70;9.25;;;4.40;68.00;;;;;;5115759;28;20055;-73
2021/01/11 03:46:11;;;;;;;12.18;7.50;;;4.50;68.00;;;;;;5114921;28;20438;-72
2021/01/11 03:48:37;;;;;;;10.07;6.28;;;4.50;68.00;;;;;;5115029;28;20019;-73
2021/01/11 03:51:03;;;;;;;9.90;5.93;;;4.50;67.70;;;;;;5115376;28;20038;-73
2021/01/11 03:53:29;;;;;;;11.68;6.63;;;4.50;67.40;;;;;;5114824;28;20063;-73
2021/01/11 03:55:55;;;;;;;8.85;6.25;;;4.50;67.10;;;;;;5113609;28;20051;-73
2021/01/11 03:58:20;;;;;;;9.48;6.15;;;4.50;66.90;;;;;;5114912;28;20095;-73
2021/01/11 04:00:50;;;;;;;13.65;7.50;;;4.50;66.70;;;;;;5114792;28;20030;-72
2021/01/11 04:03:17;;;;;;;16.83;8.98;;;4.50;66.50;;;;;;5114894;28;20027;-72
2021/01/11 04:05:45;;;;;;;19.40;9.57;;;4.50;66.50;;;;;;5115308;28;20066;-72
2021/01/11 04:08:12;;;;;;;17.38;8.82;;;4.50;66.30;;;;;;5113437;28;20110;-72
2021/01/11 04:10:37;;;;;;;16.88;8.88;;;4.40;66.20;;;;;;5112626;28;20035;-72
2021/01/11 04:13:04;;;;;;;15.55;8.82;;;4.40;66.10;;;;;;5114514;28;20027;-72
2021/01/11 04:15:30;;;;;;;15.63;8.80;;;4.30;66.20;;;;;;5114892;28;20030;-73
2021/01/11 04:17:55;;;;;;;18.40;9.77;;;4.20;66.00;;;;;;5113266;28;20027;-73
2021/01/11 04:20:21;;;;;;;16.95;9.93;;;4.20;65.90;;;;;;5114500;28;20421;-74
2021/01/11 04:22:47;;;;;;;16.80;10.15;;;4.10;66.00;;;;;;5114551;28;20034;-72
2021/01/11 04:25:14;;;;;;;20.73;11.07;;;4.00;66.00;;;;;;5114556;28;20475;-73
2021/01/11 04:27:40;;;;;;;18.85;9.98;;;3.90;66.10;;;;;;5113383;28;20118;-73
2021/01/11 04:30:10;;;;;;;20.60;10.43;;;3.90;66.50;;;;;;5114881;28;20043;-74
2021/01/11 04:32:41;;;;;;;18.05;10.48;;;3.80;66.60;;;;;;5113818;28;20034;-73
2021/01/11 04:35:09;;;;;;;18.33;8.95;;;3.80;66.70;;;;;;5114260;28;20024;-74
2021/01/11 04:37:39;;;;;;;24.13;10.38;;;3.80;66.70;;;;;;5113701;28;20066;-75
2021/01/11 04:40:06;;;;;;;19.02;9.93;;;3.70;66.70;;;;;;5114439;28;20050;-74
2021/01/11 04:43:04;;;;;;;18.35;9.52;;;3.80;66.90;;;;;;5114174;28;20032;-73
2021/01/11 04:45:31;;;;;;;18.80;10.18;;;3.70;67.10;;;;;;5111870;28;20028;-73
2021/01/11 04:47:59;;;;;;;18.80;9.77;;;3.80;67.20;;;;;;5113235;28;20114;-73
2021/01/11 04:50:26;;;;;;;22.08;10.57;;;3.80;67.20;;;;;;5112763;28;20020;-72
2021/01/11 04:52:52;;;;;;;29.10;12.45;;;3.80;67.20;;;;;;5112662;28;20024;-73
2021/01/11 04:55:19;;;;;;;22.45;11.35;;;3.80;67.20;;;;;;5112708;28;20044;-73
2021/01/11 04:57:57;;;;;;;26.25;12.88;;;3.80;67.20;;;;;;5112772;28;20024;-72
2021/01/11 05:00:28;;;;;;;22.80;12.27;;;3.80;67.00;;;;;;5114160;28;20089;-73
2021/01/11 05:03:08;;;;;;;20.58;11.60;;;3.80;66.90;;;;;;5114009;28;20020;-74
2021/01/11 05:05:43;;;;;;;21.27;11.95;;;3.80;66.80;;;;;;5113780;28;20468;-73
2021/01/11 05:08:09;;;;;;;22.40;11.68;;;3.70;66.80;;;;;;5113758;28;20031;-73
2021/01/11 05:10:37;;;;;;;19.88;10.63;;;3.60;66.90;;;;;;5113470;28;20380;-74
2021/01/11 05:13:07;;;;;;;17.95;9.45;;;3.60;67.00;;;;;;5113920;28;20077;-74
2021/01/11 05:15:41;;;;;;;21.60;10.98;;;3.50;67.00;;;;;;5113665;28;20027;-72
2021/01/11 05:18:13;;;;;;;15.90;8.55;;;3.60;67.00;;;;;;5113652;28;20102;-74
2021/01/11 05:20:39;;;;;;;16.20;8.60;;;3.50;66.80;;;;;;5113685;28;20019;-73
2021/01/11 05:23:10;;;;;;;17.90;9.38;;;3.40;66.90;;;;;;5115291;28;20039;-73
2021/01/11 05:25:37;;;;;;;17.23;9.05;;;3.40;67.10;;;;;;5117639;28;20114;-73
2021/01/11 05:28:17;;;;;;;18.38;9.88;;;3.40;67.40;;;;;;5117693;28;20092;-73
2021/01/11 05:30:48;;;;;;;19.27;9.77;;;3.40;67.40;;;;;;5117864;28;20028;-74
2021/01/11 05:33:24;;;;;;;19.50;10.43;;;3.50;67.50;;;;;;5117331;28;20462;-72
2021/01/11 05:36:07;;;;;;;20.13;10.50;;;3.60;67.60;;;;;;5117905;28;20023;-73
2021/01/11 05:38:37;;;;;;;22.48;11.15;;;3.60;67.50;;;;;;5117373;28;20063;-73
2021/01/11 05:41:15;;;;;;;27.05;12.68;;;3.70;67.60;;;;;;5117489;28;20072;-73
2021/01/11 05:43:40;;;;;;;27.15;11.35;;;3.80;67.50;;;;;;5117154;28;20479;-73
2021/01/11 05:46:22;;;;;;;20.88;9.77;;;3.80;67.50;;;;;;5116891;28;20062;-73
2021/01/11 05:48:58;;;;;;;16.38;8.68;;;3.80;67.50;;;;;;5117417;28;20032;-74
2021/01/11 05:51:25;;;;;;;14.60;7.53;;;3.90;67.30;;;;;;5116118;28;20027;-73
2021/01/11 05:53:51;;;;;;;14.13;7.32;;;4.00;67.30;;;;;;5117221;28;20027;-73
2021/01/11 05:56:16;;;;;;;13.80;7.15;;;4.00;67.20;;;;;;5117869;28;20400;-73
2021/01/11 05:59:05;;;;;;;14.35;7.50;;;4.10;67.00;;;;;;5115892;28;20024;-73
2021/01/11 06:01:32;;;;;;;16.63;7.60;;;4.10;66.50;;;;;;5116067;28;20371;-73
2021/01/11 06:03:57;;;;;;;13.05;6.57;;;4.10;66.70;;;;;;5116980;28;20035;-73
2021/01/11 06:06:24;;;;;;;11.55;6.55;;;4.20;66.80;;;;;;5117275;28;20376;-75
2021/01/11 06:08:54;;;;;;;10.23;5.50;;;4.20;66.40;;;;;;5117360;28;20027;-73
2021/01/11 06:11:22;;;;;;;10.90;5.97;;;4.20;66.10;;;;;;5117087;28;20028;-74
2021/01/11 06:13:49;;;;;;;15.27;7.20;;;4.20;65.90;;;;;;5116236;28;20386;-73
2021/01/11 06:16:17;;;;;;;12.52;6.75;;;4.20;65.70;;;;;;5117398;28;20441;-73
2021/01/11 06:18:45;;;;;;;12.15;6.35;;;4.30;65.60;;;;;;5117010;28;20023;-74
2021/01/11 06:21:11;;;;;;;12.10;6.88;;;4.30;65.50;;;;;;5116052;28;20027;-74
2021/01/11 06:23:38;;;;;;;16.30;7.88;;;4.30;65.30;;;;;;5115333;28;20035;-75
2021/01/11 06:26:27;;;;;;;12.02;6.40;;;4.30;65.00;;;;;;5115689;28;20027;-73
2021/01/11 06:28:54;;;;;;;14.25;7.30;;;4.30;64.60;;;;;;5115339;28;20552;-74
2021/01/11 06:31:27;;;;;;;17.05;7.82;;;4.20;64.50;;;;;;5117219;28;20028;-76
2021/01/11 06:33:53;;;;;;;11.77;6.70;;;4.20;64.30;;;;;;5114445;28;20072;-74
2021/01/11 06:36:33;;;;;;;12.60;7.25;;;4.20;64.30;;;;;;5116471;28;20097;-74
2021/01/11 06:39:07;;;;;;;10.75;6.15;;;4.10;64.20;;;;;;5115128;28;20073;-73
2021/01/11 06:41:35;;;;;;;11.43;6.40;;;4.10;64.10;;;;;;5116415;28;20048;-74
2021/01/11 06:44:06;;;;;;;11.63;6.22;;;4.10;64.30;;;;;;5116303;28;20034;-74
2021/01/11 06:46:31;;;;;;;12.07;6.88;;;4.00;64.10;;;;;;5115942;28;20467;-73
2021/01/11 06:49:00;;;;;;;11.65;6.63;;;4.10;64.30;;;;;;5114887;28;20068;-74
2021/01/11 06:51:51;;;;;;;13.13;7.00;;;4.00;64.20;;;;;;5116011;28;20053;-74
2021/01/11 06:54:17;;;;;;;12.43;6.90;;;4.10;64.10;;;;;;5116290;28;20023;-75
2021/01/11 06:56:44;;;;;;;11.63;7.20;;;4.10;64.30;;;;;;5114628;28;20456;-74
2021/01/11 06:59:12;;;;;;;13.40;6.90;;;4.20;64.20;;;;;;5115760;28;20334;-75
2021/01/11 07:01:39;;;;;;;11.57;6.05;;;4.30;63.90;;;;;;5116353;28;20039;-74
2021/01/11 07:04:06;;;;;;;11.68;6.18;;;4.40;64.00;;;;;;5115913;28;20022;-73
2021/01/11 07:06:40;;;;;;;9.75;5.63;;;4.50;63.80;;;;;;5116301;28;20024;-74
2021/01/11 07:09:17;;;;;;;9.05;5.57;;;4.60;63.50;;;;;;5115566;28;20031;-73
2021/01/11 07:11:45;;;;;;;10.13;5.82;;;4.70;63.40;;;;;;5115682;28;20066;-76
2021/01/11 07:14:13;;;;;;;18.85;8.73;;;4.80;63.30;;;;;;5115860;28;20031;-75
2021/01/11 07:16:44;;;;;;;9.40;5.93;;;4.80;62.90;;;;;;5115758;28;20046;-75
2021/01/11 07:19:14;;;;;;;10.70;5.78;;;4.90;62.70;;;;;;5114403;28;20020;-75
2021/01/11 07:21:41;;;;;;;7.72;5.43;;;4.90;62.50;;;;;;5114415;28;20027;-75
2021/01/11 07:24:10;;;;;;;9.75;5.55;;;5.00;62.40;;;;;;5114032;28;20353;-75
2021/01/11 07:26:36;;;;;;;8.93;5.40;;;5.00;62.20;;;;;;5115324;28;20032;-75
2021/01/11 07:29:12;;;;;;;9.80;6.05;;;5.10;62.00;;;;;;5115687;28;20359;-77
2021/01/11 07:31:45;;;;;;;13.20;6.78;;;5.20;61.80;;;;;;5115099;28;20034;-74
2021/01/11 07:34:16;;;;;;;10.02;5.88;;;5.20;61.70;;;;;;5115254;28;20157;-75
2021/01/11 07:36:50;;;;;;;9.20;6.15;;;5.30;61.70;;;;;;5116165;28;20023;-76
2021/01/11 07:39:18;;;;;;;9.68;6.28;;;5.40;61.70;;;;;;5115699;28;20048;-75
2021/01/11 07:41:49;;;;;;;11.90;6.82;;;5.50;61.80;;;;;;5114919;28;20058;-75
2021/01/11 07:44:25;;;;;;;15.30;8.07;;;5.60;61.70;;;;;;5115122;28;20034;-74
2021/01/11 07:46:59;;;;;;;19.52;10.98;;;5.90;61.40;;;;;;5114963;28;20055;-75
2021/01/11 07:49:27;;;;;;;15.90;7.60;;;6.10;61.20;;;;;;5115028;28;20039;-75
2021/01/11 07:51:54;;;;;;;10.88;6.82;;;6.30;60.90;;;;;;5115330;28;20031;-75
2021/01/11 07:54:23;;;;;;;8.60;5.85;;;6.60;60.60;;;;;;5113923;28;20443;-75
2021/01/11 07:56:50;;;;;;;8.75;5.38;;;6.90;59.90;;;;;;5114607;28;20019;-76
2021/01/11 07:59:19;;;;;;;9.30;5.60;;;7.30;59.70;;;;;;5115485;28;20492;-75
2021/01/11 08:01:47;;;;;;;13.25;5.72;;;7.60;59.50;;;;;;5113260;28;20399;-75
2021/01/11 08:04:14;;;;;;;10.38;5.15;;;7.90;59.30;;;;;;5114864;28;20031;-75
2021/01/11 08:06:58;;;;;;;7.65;5.53;;;8.40;60.00;;;;;;5115338;28;20020;-74
2021/01/11 08:09:27;;;;;;;9.07;5.72;;;9.20;58.90;;;;;;5114469;28;20015;-74
2021/01/11 08:12:06;;;;;;;8.20;5.32;;;10.10;59.50;;;;;;5114551;28;20031;-75
2021/01/11 08:14:32;;;;;;;7.50;4.90;;;11.00;57.80;;;;;;5114312;28;20015;-75
2021/01/11 08:16:58;;;;;;;7.55;4.57;;;12.00;57.80;;;;;;5113943;28;20030;-76
2021/01/11 08:19:24;;;;;;;8.20;5.03;;;12.90;56.00;;;;;;5113403;28;20398;-76
2021/01/11 08:21:59;;;;;;;7.25;5.50;;;13.40;54.00;;;;;;5114596;28;20034;-75
2021/01/11 08:24:26;;;;;;;7.50;4.95;;;14.00;51.80;;;;;;5114322;28;20110;-75
2021/01/11 08:27:05;;;;;;;5.63;4.60;;;14.70;51.50;;;;;;5114392;28;20024;-76
2021/01/11 08:29:37;;;;;;;7.13;5.05;;;14.80;48.20;;;;;;5114182;28;20076;-75
2021/01/11 08:32:11;;;;;;;6.90;5.05;;;14.40;46.90;;;;;;5113980;28;20356;-76
2021/01/11 08:34:37;;;;;;;7.07;5.28;;;13.90;46.20;;;;;;5114395;28;20027;-76
2021/01/11 08:37:38;;;;;;;6.95;5.18;;;13.30;46.80;;;;;;5114320;28;20088;-74
2021/01/11 08:40:06;;;;;;;7.68;5.93;;;13.50;47.40;;;;;;5091694;28;20055;-74
2021/01/11 08:42:33;;;;;;;11.63;6.95;;;14.20;48.20;;;;;;5105176;28;20050;-75
2021/01/11 08:45:32;;;;;;;9.77;6.80;;;14.90;47.30;;;;;;5114132;28;20023;-75
2021/01/11 08:48:15;;;;;;;13.88;8.45;;;15.60;45.30;;;;;;5114299;28;20019;-74
2021/01/11 08:50:47;;;;;;;8.05;6.53;;;16.40;44.80;;;;;;5114285;28;20031;-75
2021/01/11 08:53:25;;;;;;;6.43;5.35;;;17.10;44.80;;;;;;5112966;28;20027;-75
2021/01/11 08:56:09;;;;;;;10.95;8.13;;;17.80;42.90;;;;;;5113118;28;20115;-76
2021/01/11 08:58:49;;;;;;;16.75;9.43;;;18.50;41.60;;;;;;5113979;28;20069;-76
2021/01/11 09:01:22;;;;;;;9.13;6.72;;;18.50;40.30;;;;;;5112424;28;20388;-75
2021/01/11 09:03:50;;;;;;;7.65;6.40;;;17.80;39.40;;;;;;5114267;28;20034;-76
2021/01/11 09:06:41;;;;;;;10.98;6.80;;;16.90;39.40;;;;;;5114009;28;20027;-75
2021/01/11 09:09:12;;;;;;;11.35;7.68;;;15.80;39.30;;;;;;5114124;28;20409;-76
2021/01/11 09:11:39;;;;;;;7.50;5.97;;;14.90;40.10;;;;;;5113721;28;20084;-76
2021/01/11 09:14:12;;;;;;;10.60;7.70;;;14.50;41.10;;;;;;5113732;28;20093;-75
2021/01/11 09:16:39;;;;;;;9.88;7.07;;;14.80;42.20;;;;;;5112684;28;20027;-74
2021/01/11 09:19:07;;;;;;;10.52;7.47;;;15.80;42.40;;;;;;5113764;28;20455;-75
2021/01/11 09:21:33;;;;;;;10.75;8.02;;;16.90;41.30;;;;;;5114037;28;20510;-75
2021/01/11 09:23:59;;;;;;;8.05;6.63;;;17.80;40.80;;;;;;5095640;28;20114;-76
2021/01/11 09:26:25;;;;;;;8.70;6.97;;;18.60;40.00;;;;;;5113402;28;20112;-74
2021/01/11 09:28:52;;;;;;;8.15;6.05;;;19.30;38.90;;;;;;5113710;28;20024;-75
2021/01/11 09:31:17;;;;;;;9.70;6.38;;;19.80;38.10;;;;;;5112583;28;20032;-76
2021/01/11 09:33:43;;;;;;;8.18;6.72;;;20.30;37.40;;;;;;5114154;28;20032;-77
2021/01/11 09:36:09;;;;;;;8.98;6.55;;;20.80;36.90;;;;;;5113665;28;20047;-75
2021/01/11 09:38:35;;;;;;;9.45;6.57;;;21.30;36.20;;;;;;5112673;28;20058;-73
2021/01/11 09:41:00;;;;;;;8.82;6.68;;;21.70;35.50;;;;;;5113611;28;20023;-75
2021/01/11 09:43:26;;;;;;;9.00;6.63;;;22.20;34.90;;;;;;5113764;28;20100;-76
2021/01/11 09:45:52;;;;;;;7.13;5.55;;;22.60;34.20;;;;;;5112548;28;20020;-76
2021/01/11 09:48:17;;;;;;;8.15;6.68;;;23.00;33.60;;;;;;5113991;28;20467;-77
2021/01/11 09:50:43;;;;;;;10.05;7.38;;;22.80;32.70;;;;;;5113785;28;20024;-76
2021/01/11 09:53:11;;;;;;;9.77;6.60;;;21.90;32.20;;;;;;5113188;28;20020;-76
2021/01/11 09:55:37;;;;;;;7.90;5.75;;;21.20;32.60;;;;;;5113105;28;20440;-75
2021/01/11 09:58:04;;;;;;;9.70;6.55;;;20.40;32.50;;;;;;5113488;28;20055;-75
2021/01/11 10:00:30;;;;;;;6.68;5.68;;;19.40;33.10;;;;;;5113283;28;20028;-76
2021/01/11 10:02:56;;;;;;;7.95;5.70;;;19.00;34.20;;;;;;5113199;28;20369;-76
2021/01/11 10:05:23;;;;;;;6.35;5.50;;;19.50;34.60;;;;;;5113281;28;20371;-76
2021/01/11 10:07:51;;;;;;;8.48;5.95;;;19.90;34.20;;;;;;5113686;28;20424;-76
2021/01/11 10:10:17;;;;;;;7.75;6.03;;;20.20;33.60;;;;;;5115200;28;20027;-75
2021/01/11 10:12:42;;;;;;;7.25;5.68;;;20.30;33.40;;;;;;5117332;28;20080;-76
2021/01/11 10:15:09;;;;;;;13.60;7.45;;;20.10;33.10;;;;;;5115868;28;20106;-76
2021/01/11 10:17:38;;;;;;;16.15;9.50;;;19.70;33.20;;;;;;5117032;28;20031;-76
2021/01/11 10:20:06;;;;;;;9.18;6.00;;;19.20;33.20;;;;;;5116516;28;20172;-76
2021/01/11 10:22:32;;;;;;;9.98;6.75;;;18.60;33.50;;;;;;5117099;28;20108;-76
2021/01/11 10:24:59;;;;;;;8.77;6.53;;;18.10;33.90;;;;;;5117228;28;20024;-76
2021/01/11 10:27:26;;;;;;;8.88;5.70;;;17.70;34.30;;;;;;5116402;28;20149;-75
2021/01/11 10:29:51;;;;;;;8.32;6.18;;;17.40;34.80;;;;;;5116713;28;20437;-76
2021/01/11 10:32:17;;;;;;;9.40;5.70;;;17.30;35.10;;;;;;5116585;28;20088;-76
2021/01/11 10:34:43;;;;;;;7.78;5.88;;;17.10;35.20;;;;;;5116650;28;20073;-75
2021/01/11 10:37:08;;;;;;;7.57;5.60;;;17.00;35.50;;;;;;5116794;28;20294;-76
2021/01/11 10:39:34;;;;;;;8.02;6.28;;;16.90;35.40;;;;;;5116947;28;20051;-74
2021/01/11 10:42:00;;;;;;;9.68;6.55;;;16.70;35.60;;;;;;5116181;28;20044;-76
2021/01/11 10:44:26;;;;;;;9.38;6.65;;;16.50;35.70;;;;;;5116429;28;20028;-74
2021/01/11 10:46:59;;;;;;;10.75;6.72;;;16.20;35.80;;;;;;5116339;28;20073;-74
2021/01/11 10:49:25;;;;;;;9.32;6.38;;;15.80;36.00;;;;;;5114965;28;20035;-75
2021/01/11 10:51:53;;;;;;;11.32;6.78;;;15.40;36.40;;;;;;5116388;28;20085;-76
2021/01/11 10:54:18;;;;;;;11.93;7.20;;;14.90;36.80;;;;;;5116178;28;20482;-75
2021/01/11 10:56:44;;;;;;;12.70;7.43;;;14.40;37.20;;;;;;5115978;28;20115;-76
2021/01/11 10:59:11;;;;;;;9.40;6.63;;;14.00;37.70;;;;;;5116071;28;20024;-76
2021/01/11 11:01:37;;;;;;;9.82;6.13;;;13.50;37.90;;;;;;5116096;28;20434;-77
2021/01/11 11:04:03;;;;;;;10.80;6.50;;;13.10;38.50;;;;;;5116840;28;20068;-75
2021/01/11 11:06:29;;;;;;;11.05;6.60;;;12.70;38.90;;;;;;5116482;28;20077;-76
2021/01/11 11:08:55;;;;;;;9.90;6.22;;;12.40;39.40;;;;;;5116494;28;20451;-76
2021/01/11 11:11:21;;;;;;;9.85;6.32;;;12.10;39.80;;;;;;5116301;28;20532;-74
2021/01/11 11:13:47;;;;;;;10.43;6.43;;;11.80;40.20;;;;;;5116205;28;20107;-76
2021/01/11 11:16:13;;;;;;;9.93;7.00;;;11.60;41.40;;;;;;5114437;28;20055;-76
2021/01/11 11:18:40;;;;;;;10.20;6.97;;;11.40;41.10;;;;;;5115741;28;20024;-75
2021/01/11 11:21:07;;;;;;;11.32;6.90;;;11.30;41.30;;;;;;5114978;28;20027;-76
2021/01/11 11:23:33;;;;;;;11.00;7.05;;;11.20;41.50;;;;;;5115745;28;20061;-77
2021/01/11 11:26:00;;;;;;;17.75;10.15;;;11.00;41.80;;;;;;5116111;28;20055;-77
2021/01/11 11:28:30;;;;;;;11.93;7.50;;;10.80;42.20;;;;;;5114534;28;20055;-76
2021/01/11 11:30:56;;;;;;;14.07;8.55;;;10.60;42.40;;;;;;5115764;28;20115;-77
2021/01/11 11:33:22;;;;;;;12.55;7.07;;;10.50;42.80;;;;;;5114473;28;20020;-76
2021/01/11 11:35:49;;;;;;;16.17;6.15;;;10.40;43.10;;;;;;5116004;28;20023;-77
2021/01/11 11:38:14;;;;;;;15.73;8.02;;;10.30;43.10;;;;;;5114298;28;20078;-75
2021/01/11 11:40:41;;;;;;;11.05;6.32;;;10.30;43.30;;;;;;5116001;28;20062;-76
2021/01/11 11:43:07;;;;;;;32.83;14.88;;;10.30;43.50;;;;;;5114282;28;20493;-75
2021/01/11 11:45:33;;;;;;;11.50;6.80;;;10.40;43.80;;;;;;5115574;28;20099;-75
2021/01/11 11:47:59;;;;;;;11.65;6.55;;;10.70;44.00;;;;;;5115337;28;20023;-75
2021/01/11 11:50:26;;;;;;;10.30;6.20;;;11.00;43.60;;;;;;5114883;28;20448;-75
2021/01/11 11:52:52;;;;;;;11.65;7.00;;;11.30;43.50;;;;;;5115455;28;20023;-76
2021/01/11 11:55:17;;;;;;;12.13;7.13;;;11.60;43.30;;;;;;5113845;28;20039;-76
2021/01/11 11:57:44;;;;;;;9.82;6.72;;;12.10;43.20;;;;;;5114006;28;20023;-76
2021/01/11 12:00:15;;;;;;;11.68;6.82;;;12.70;42.90;;;;;;5115229;28;20372;-76
2021/01/11 12:02:42;;;;;;;9.38;6.75;;;13.60;42.40;;;;;;5114742;28;20028;-75
2021/01/11 12:05:12;;;;;;;14.55;7.93;;;14.30;41.40;;;;;;5114998;28;20031;-76
2021/01/11 12:07:38;;;;;;;18.40;11.55;;;14.60;40.10;;;;;;5113740;28;20023;-75
2021/01/11 12:10:06;;;;;;;19.20;10.45;;;15.00;39.90;;;;;;5114900;28;20539;-75
2021/01/11 12:12:32;;;;;;;10.55;7.05;;;15.50;39.20;;;;;;5115223;28;20035;-76
2021/01/11 12:15:02;;;;;;;17.80;8.30;;;15.80;39.00;;;;;;5113540;28;20030;-76
2021/01/11 12:17:29;;;;;;;13.77;8.23;;;15.90;38.10;;;;;;5114789;28;20525;-74
2021/01/11 12:19:54;;;;;;;12.77;8.30;;;15.80;37.50;;;;;;5114167;28;20028;-76
2021/01/11 12:22:20;;;;;;;13.13;8.15;;;15.70;37.30;;;;;;5113304;28;20094;-75
2021/01/11 12:24:46;;;;;;;11.98;8.07;;;15.70;37.50;;;;;;5113735;28;20028;-74
2021/01/11 12:27:12;;;;;;;15.68;8.60;;;16.00;37.60;;;;;;5114602;28;20109;-76
2021/01/11 12:29:38;;;;;;;18.98;9.68;;;16.40;37.30;;;;;;5115131;28;20024;-76
2021/01/11 12:32:05;;;;;;;19.38;10.32;;;16.70;36.90;;;;;;5112842;28;20034;-75
2021/01/11 12:34:44;;;;;;;14.88;9.23;;;17.20;36.60;;;;;;5113484;28;20023;-76
2021/01/11 12:37:14;;;;;;;15.85;10.15;;;17.70;36.20;;;;;;5114587;28;20036;-76
2021/01/11 12:39:40;;;;;;;16.90;10.82;;;18.20;35.60;;;;;;5114866;28;20380;-76
2021/01/11 12:42:08;;;;;;;20.83;9.45;;;18.50;34.90;;;;;;5114345;28;20036;-76
2021/01/11 12:44:34;;;;;;;13.45;8.60;;;18.30;34.10;;;;;;5114135;28;20042;-77
2021/01/11 12:47:00;;;;;;;15.65;9.70;;;17.90;33.90;;;;;;5112313;28;20460;-76
2021/01/11 12:49:27;;;;;;;13.75;9.52;;;17.30;33.80;;;;;;5113781;28;20035;-76
2021/01/11 12:51:53;;;;;;;17.30;9.85;;;16.60;33.90;;;;;;5113181;28;20036;-76
2021/01/11 12:54:22;;;;;;;10.13;7.75;;;16.00;34.40;;;;;;5114646;28;20030;-76